createdAt,value
2022-11-24T00:01:11.335Z,3.30
2022-11-24T00:03:38.494Z,3.15
2022-11-24T00:06:07.755Z,3.30
2022-11-24T00:08:39.116Z,3.05
2022-11-24T00:11:11.487Z,3.15
2022-11-24T00:13:41.541Z,3.03
2022-11-24T00:16:16.926Z,3.13
2022-11-24T00:18:45.960Z,3.47
2022-11-24T00:21:13.755Z,4.03
2022-11-24T00:23:40.842Z,3.70
2022-11-24T00:26:10.400Z,4.00
2022-11-24T00:28:38.276Z,3.20
2022-11-24T00:31:17.186Z,4.28
2022-11-24T00:33:45.117Z,3.03
2022-11-24T00:36:12.032Z,3.97
2022-11-24T00:38:39.001Z,3.72
2022-11-24T00:41:06.753Z,4.00
2022-11-24T00:43:34.019Z,4.15
2022-11-24T00:46:01.262Z,3.20
2022-11-24T00:48:28.436Z,4.10
2022-11-24T00:51:00.554Z,4.45
2022-11-24T00:53:28.602Z,3.35
2022-11-24T00:55:56.326Z,4.13
2022-11-24T00:58:24.147Z,3.88
2022-11-24T01:00:51.459Z,2.83
2022-11-24T01:03:19.533Z,3.90
2022-11-24T01:05:46.517Z,3.38
2022-11-24T01:08:13.386Z,3.58
2022-11-24T01:10:40.462Z,3.45
2022-11-24T01:13:07.377Z,3.80
2022-11-24T01:15:36.662Z,3.47
2022-11-24T01:18:04.246Z,3.55
2022-11-24T01:20:31.846Z,3.30
2022-11-24T01:22:58.727Z,3.45
2022-11-24T01:25:25.677Z,4.53
2022-11-24T01:27:52.791Z,3.72
2022-11-24T01:30:19.988Z,3.45
2022-11-24T01:32:46.884Z,3.92
2022-11-24T01:35:13.775Z,3.58
2022-11-24T01:37:40.849Z,3.78
2022-11-24T01:40:08.583Z,2.95
2022-11-24T01:42:50.920Z,3.42
2022-11-24T01:45:41.066Z,3.75
2022-11-24T01:48:24.460Z,4.63
2022-11-24T01:51:06.687Z,3.83
2022-11-24T01:53:34.131Z,4.13
2022-11-24T01:56:01.157Z,3.92
2022-11-24T01:58:30.762Z,3.88
2022-11-24T02:00:57.676Z,4.00
2022-11-24T02:03:30.252Z,4.20
2022-11-24T02:06:11.652Z,3.75
2022-11-24T02:08:50.199Z,4.20
2022-11-24T02:11:17.803Z,4.07
2022-11-24T02:13:46.365Z,3.85
2022-11-24T02:16:13.388Z,3.42
2022-11-24T02:18:41.994Z,3.83
2022-11-24T02:21:11.435Z,4.68
2022-11-24T02:24:03.892Z,3.95
2022-11-24T02:26:48.157Z,4.65
2022-11-24T02:29:15.536Z,4.22
2022-11-24T02:31:47.655Z,4.45
2022-11-24T02:34:14.602Z,3.42
2022-11-24T02:36:41.503Z,3.08
2022-11-24T02:39:13.062Z,4.20
2022-11-24T02:41:47.123Z,4.22
2022-11-24T02:44:16.107Z,3.80
2022-11-24T02:46:43.029Z,3.88
2022-11-24T02:49:10.008Z,3.88
2022-11-24T02:51:36.886Z,3.60
2022-11-24T02:54:03.851Z,3.85
2022-11-24T02:56:31.906Z,4.35
2022-11-24T02:58:58.783Z,3.75
2022-11-24T03:01:25.802Z,4.38
2022-11-24T03:03:53.562Z,3.47
2022-11-24T03:06:20.774Z,3.88
2022-11-24T03:08:47.641Z,3.25
2022-11-24T03:11:14.757Z,3.30
2022-11-24T03:13:41.688Z,2.90
2022-11-24T03:16:10.438Z,4.85
2022-11-24T03:18:37.420Z,2.67
2022-11-24T03:21:04.624Z,4.28
2022-11-24T03:23:31.566Z,2.90
2022-11-24T03:26:13.658Z,2.35
2022-11-24T03:28:40.686Z,2.58
2022-11-24T03:31:08.655Z,2.60
2022-11-24T03:33:36.425Z,2.45
2022-11-24T03:36:04.523Z,2.78
2022-11-24T03:38:31.470Z,2.75
2022-11-24T03:40:58.369Z,2.20
2022-11-24T03:43:25.559Z,2.78
2022-11-24T03:45:52.410Z,2.28
2022-11-24T03:48:21.479Z,2.83
2022-11-24T03:51:03.160Z,2.65
2022-11-24T03:53:31.726Z,2.50
2022-11-24T03:55:58.671Z,2.50
2022-11-24T03:58:25.863Z,2.65
2022-11-24T04:00:53.968Z,2.33
2022-11-24T04:03:20.987Z,2.10
2022-11-24T04:05:47.986Z,2.20
2022-11-24T04:08:15.442Z,2.13
2022-11-24T04:10:42.684Z,2.08
2022-11-24T04:13:15.778Z,2.15
2022-11-24T04:15:43.638Z,2.03
2022-11-24T04:18:12.544Z,1.92
2022-11-24T04:20:40.716Z,2.60
2022-11-24T04:23:08.927Z,1.88
2022-11-24T04:25:36.110Z,1.45
2022-11-24T04:28:03.373Z,1.73
2022-11-24T04:30:30.290Z,1.63
2022-11-24T04:32:57.431Z,1.60
2022-11-24T04:35:24.687Z,1.30
2022-11-24T04:37:51.680Z,1.63
2022-11-24T04:40:19.514Z,1.60
2022-11-24T04:42:54.391Z,1.67
2022-11-24T04:45:21.948Z,1.33
2022-11-24T04:47:48.797Z,1.30
2022-11-24T04:50:16.299Z,1.42
2022-11-24T04:52:43.689Z,1.27
2022-11-24T04:55:10.840Z,1.60
2022-11-24T04:57:38.011Z,1.40
2022-11-24T05:00:05.724Z,1.30
2022-11-24T05:02:32.672Z,1.10
2022-11-24T05:04:59.566Z,1.35
2022-11-24T05:07:26.537Z,1.10
2022-11-24T05:10:11.854Z,1.35
2022-11-24T05:12:39.556Z,1.67
2022-11-24T05:15:07.594Z,1.70
2022-11-24T05:17:37.994Z,1.67
2022-11-24T05:20:07.202Z,1.10
2022-11-24T05:22:34.186Z,1.50
2022-11-24T05:25:01.766Z,1.70
2022-11-24T05:27:28.992Z,1.40
2022-11-24T05:29:56.291Z,1.10
2022-11-24T05:32:23.678Z,1.42
2022-11-24T05:34:50.647Z,1.50
2022-11-24T05:37:17.823Z,1.00
2022-11-24T05:39:44.697Z,1.40
2022-11-24T05:42:30.273Z,1.70
2022-11-24T05:44:57.678Z,1.30
2022-11-24T05:47:24.691Z,1.33
2022-11-24T05:49:52.001Z,1.35
2022-11-24T05:52:18.874Z,1.80
2022-11-24T05:54:45.693Z,1.90
2022-11-24T05:57:13.231Z,1.17
2022-11-24T05:59:40.226Z,1.80
2022-11-24T06:02:07.186Z,1.85
2022-11-24T06:04:34.297Z,2.10
2022-11-24T06:07:01.534Z,1.60
2022-11-24T06:09:28.648Z,2.03
2022-11-24T06:11:56.081Z,2.05
2022-11-24T06:14:23.041Z,2.42
2022-11-24T06:16:49.939Z,1.80
2022-11-24T06:19:16.948Z,2.25
2022-11-24T06:21:43.821Z,2.15
2022-11-24T06:24:10.837Z,2.47
2022-11-24T06:26:37.655Z,2.67
2022-11-24T06:29:04.528Z,2.10
2022-11-24T06:31:31.358Z,2.25
2022-11-24T06:33:58.859Z,2.55
2022-11-24T06:36:25.788Z,2.70
2022-11-24T06:38:52.682Z,2.15
2022-11-24T06:41:20.026Z,2.63
2022-11-24T06:43:47.618Z,2.58
2022-11-24T06:46:14.519Z,2.55
2022-11-24T06:48:41.597Z,2.55
2022-11-24T06:51:12.808Z,2.53
2022-11-24T06:53:40.877Z,2.17
2022-11-24T06:56:16.348Z,2.30
2022-11-24T06:58:46.666Z,2.60
2022-11-24T07:01:18.755Z,1.95
2022-11-24T07:03:48.096Z,2.65
2022-11-24T07:06:15.857Z,3.15
2022-11-24T07:08:42.949Z,1.52
2022-11-24T07:11:15.460Z,2.35
2022-11-24T07:13:46.045Z,2.35
2022-11-24T07:16:21.543Z,2.60
2022-11-24T07:18:51.254Z,2.00
2022-11-24T07:21:19.758Z,2.53
2022-11-24T07:23:54.102Z,2.47
2022-11-24T07:26:21.879Z,1.88
2022-11-24T07:28:49.077Z,2.38
2022-11-24T07:31:21.752Z,2.28
2022-11-24T07:33:53.292Z,3.10
2022-11-24T07:36:20.858Z,2.13
2022-11-24T07:38:48.738Z,2.10
2022-11-24T07:41:17.991Z,2.15
2022-11-24T07:43:45.213Z,2.47
2022-11-24T07:46:14.647Z,2.35
2022-11-24T07:48:41.615Z,2.03
2022-11-24T07:51:09.242Z,2.03
2022-11-24T07:53:37.541Z,1.90
2022-11-24T07:56:06.393Z,2.25
2022-11-24T07:58:35.245Z,2.20
2022-11-24T08:01:16.327Z,2.05
2022-11-24T08:03:43.753Z,1.63
2022-11-24T08:06:31.811Z,2.00
2022-11-24T08:08:59.102Z,2.17
2022-11-24T08:11:26.799Z,2.13
2022-11-24T08:13:53.693Z,1.80
2022-11-24T08:16:21.044Z,1.90
2022-11-24T08:18:52.557Z,2.30
2022-11-24T08:21:19.882Z,2.08
2022-11-24T08:23:47.060Z,2.30
2022-11-24T08:26:17.852Z,1.90
2022-11-24T08:28:46.399Z,1.90
2022-11-24T08:31:18.894Z,2.15
2022-11-24T08:33:46.586Z,2.35
2022-11-24T08:36:15.953Z,1.85
2022-11-24T08:38:43.051Z,1.90
2022-11-24T08:41:12.812Z,2.20
2022-11-24T08:43:39.908Z,2.45
2022-11-24T08:46:13.189Z,2.20
2022-11-24T08:48:41.608Z,2.08
2022-11-24T08:51:13.688Z,2.47
2022-11-24T08:53:41.527Z,2.35
2022-11-24T08:56:10.820Z,2.10
2022-11-24T08:58:38.472Z,1.95
2022-11-24T09:01:06.552Z,2.17
2022-11-24T09:03:34.650Z,2.50
2022-11-24T09:06:02.445Z,2.10
2022-11-24T09:08:30.782Z,2.58
2022-11-24T09:11:08.682Z,2.22
2022-11-24T09:13:36.322Z,2.47
2022-11-24T09:16:08.860Z,2.58
2022-11-24T09:18:36.247Z,2.10
2022-11-24T09:21:07.489Z,1.77
2022-11-24T09:23:34.691Z,2.10
2022-11-24T09:26:26.038Z,2.42
2022-11-24T09:28:54.729Z,2.30
2022-11-24T09:31:24.390Z,2.58
2022-11-24T09:33:52.439Z,1.95
2022-11-24T09:36:20.368Z,2.28
2022-11-24T09:38:47.853Z,1.95
2022-11-24T09:41:44.322Z,1.98
2022-11-24T09:44:35.795Z,2.30
2022-11-24T09:47:33.312Z,2.80
2022-11-24T09:50:19.699Z,2.60
2022-11-24T09:53:03.859Z,2.55
2022-11-24T09:55:56.179Z,2.83
2022-11-24T09:58:41.879Z,2.38
2022-11-24T10:01:17.389Z,2.40
2022-11-24T10:03:52.554Z,2.83
2022-11-24T10:06:27.233Z,2.22
2022-11-24T10:09:02.342Z,2.00
2022-11-24T10:11:50.733Z,2.88
2022-11-24T10:14:23.608Z,2.47
2022-11-24T10:17:05.283Z,2.58
2022-11-24T10:19:46.037Z,2.47
2022-11-24T10:22:37.827Z,1.95
2022-11-24T10:25:12.428Z,2.38
2022-11-24T10:27:49.255Z,2.78
2022-11-24T10:30:21.693Z,1.80
2022-11-24T10:32:55.668Z,2.17
2022-11-24T10:35:35.189Z,2.15
2022-11-24T10:38:16.169Z,2.45
2022-11-24T10:40:58.796Z,2.25
2022-11-24T10:43:29.359Z,2.53
2022-11-24T10:46:08.709Z,2.13
2022-11-24T10:48:43.114Z,1.70
2022-11-24T10:51:38.735Z,2.20
2022-11-24T10:54:12.513Z,2.17
2022-11-24T10:56:44.303Z,2.40
2022-11-24T10:59:40.596Z,2.22
2022-11-24T11:02:31.061Z,2.47
2022-11-24T11:04:58.618Z,2.13
2022-11-24T11:07:27.170Z,2.05
2022-11-24T11:10:20.925Z,2.90
2022-11-24T11:12:49.950Z,2.35
2022-11-24T11:15:31.903Z,1.90
2022-11-24T11:18:02.207Z,2.67
2022-11-24T11:20:33.729Z,2.58
2022-11-24T11:23:13.142Z,3.17
2022-11-24T11:25:41.166Z,1.98
2022-11-24T11:28:29.250Z,2.65
2022-11-24T11:31:22.123Z,2.08
2022-11-24T11:34:21.814Z,2.60
2022-11-24T11:36:54.882Z,1.98
2022-11-24T11:39:31.543Z,2.85
2022-11-24T11:42:37.839Z,2.63
2022-11-24T11:45:17.427Z,2.30
2022-11-24T11:48:01.907Z,2.58
2022-11-24T11:51:15.043Z,2.20
2022-11-24T11:53:49.604Z,2.45
2022-11-24T11:56:25.778Z,2.78
2022-11-24T11:59:01.626Z,2.67
2022-11-24T12:01:31.571Z,2.20
2022-11-24T12:04:21.603Z,2.45
2022-11-24T12:07:12.681Z,2.42
2022-11-24T12:10:09.711Z,2.50
2022-11-24T12:13:03.365Z,2.17
2022-11-24T12:15:41.629Z,2.83
2022-11-24T12:18:57.064Z,2.55
2022-11-24T12:21:52.897Z,2.10
2022-11-24T12:24:27.747Z,2.78
2022-11-24T12:27:23.215Z,2.85
2022-11-24T12:29:59.126Z,2.20
2022-11-24T12:32:41.317Z,2.15
2022-11-24T12:35:22.298Z,2.08
2022-11-24T12:38:16.732Z,2.42
2022-11-24T12:43:53.445Z,2.30
2022-11-24T12:46:46.093Z,2.67
2022-11-24T12:49:38.945Z,2.10
2022-11-24T12:52:13.671Z,1.95
2022-11-24T12:54:41.176Z,2.42
2022-11-24T12:57:42.650Z,2.75
2022-11-24T13:00:21.175Z,2.42
2022-11-24T13:03:14.110Z,2.67
2022-11-24T13:05:52.367Z,2.78
2022-11-24T13:08:19.756Z,2.28
2022-11-24T13:10:57.392Z,2.60
2022-11-24T13:13:30.217Z,2.78
2022-11-24T13:18:58.788Z,2.58
2022-11-24T13:21:32.841Z,2.47
2022-11-24T13:24:05.974Z,3.13
2022-11-24T13:26:41.508Z,2.40
2022-11-24T13:29:27.127Z,2.75
2022-11-24T13:32:19.566Z,2.80
2022-11-24T13:34:58.129Z,2.95
2022-11-24T13:37:34.831Z,2.50
2022-11-24T13:40:22.903Z,1.95
2022-11-24T13:42:57.197Z,2.67
2022-11-24T13:45:38.920Z,2.75
2022-11-24T13:48:21.394Z,2.10
2022-11-24T13:50:51.932Z,3.05
2022-11-24T13:53:46.035Z,2.30
2022-11-24T13:56:12.848Z,2.72
2022-11-24T13:58:42.346Z,2.88
2022-11-24T14:01:15.055Z,3.13
2022-11-24T14:04:07.177Z,2.78
2022-11-24T14:06:42.242Z,2.20
2022-11-24T14:09:24.005Z,3.20
2022-11-24T14:12:12.184Z,2.58
2022-11-24T14:14:39.891Z,3.03
2022-11-24T14:17:22.721Z,2.40
2022-11-24T14:19:54.945Z,2.85
2022-11-24T14:22:35.065Z,2.95
2022-11-24T14:25:03.536Z,2.35
2022-11-24T14:27:36.180Z,3.10
2022-11-24T14:30:20.540Z,2.97
2022-11-24T14:33:02.066Z,3.72
2022-11-24T14:35:44.021Z,3.70
2022-11-24T14:38:12.404Z,2.90
2022-11-24T14:41:13.614Z,2.67
2022-11-24T14:43:40.561Z,2.72
2022-11-24T14:46:17.972Z,3.00
2022-11-24T14:48:50.585Z,3.10
2022-11-24T14:51:24.009Z,2.92
2022-11-24T14:54:17.483Z,3.22
2022-11-24T14:57:04.263Z,2.58
2022-11-24T14:59:34.603Z,2.80
2022-11-24T15:02:02.269Z,2.75
2022-11-24T15:05:00.996Z,3.00
2022-11-24T15:07:24.726Z,4.07
2022-11-24T15:09:58.121Z,2.90
2022-11-24T15:12:29.379Z,2.80
2022-11-24T15:15:00.215Z,3.17
2022-11-24T15:17:29.161Z,3.13
2022-11-24T15:20:00.693Z,2.65
2022-11-24T15:22:35.980Z,3.38
2022-11-24T15:25:02.998Z,3.20
2022-11-24T15:27:29.868Z,2.80
2022-11-24T15:29:56.864Z,2.35
2022-11-24T15:32:23.792Z,2.83
2022-11-24T15:34:50.643Z,2.47
2022-11-24T15:37:17.498Z,3.10
2022-11-24T15:39:44.299Z,2.70
2022-11-24T15:42:12.295Z,2.95
2022-11-24T15:44:39.162Z,2.50
2022-11-24T15:47:06.074Z,3.40
2022-11-24T15:49:32.988Z,2.75
2022-11-24T15:51:59.991Z,2.85
2022-11-24T15:54:27.654Z,2.70
2022-11-24T15:56:54.474Z,2.70
2022-11-24T15:59:24.127Z,3.00
2022-11-24T16:01:51.236Z,3.58
2022-11-24T16:04:18.159Z,3.08
2022-11-24T16:06:44.952Z,2.50
2022-11-24T16:09:14.465Z,2.75
2022-11-24T16:11:41.632Z,2.70
2022-11-24T16:14:08.599Z,2.75
2022-11-24T16:16:35.714Z,2.30
2022-11-24T16:19:02.818Z,3.05
2022-11-24T16:21:29.698Z,2.63
2022-11-24T16:23:56.533Z,2.30
2022-11-24T16:26:23.372Z,2.67
2022-11-24T16:28:50.216Z,2.88
2022-11-24T16:31:18.406Z,3.03
2022-11-24T16:33:46.418Z,3.60
2022-11-24T16:36:14.010Z,2.80
2022-11-24T16:38:41.124Z,4.28
2022-11-24T16:41:16.148Z,3.53
2022-11-24T16:43:43.011Z,3.97
2022-11-24T16:46:21.032Z,2.92
2022-11-24T16:48:53.344Z,3.58
2022-11-24T16:51:22.736Z,3.67
2022-11-24T16:54:00.481Z,3.00
2022-11-24T16:56:28.628Z,4.00
2022-11-24T16:58:55.962Z,3.35
2022-11-24T17:01:23.375Z,4.05
2022-11-24T17:03:50.253Z,3.83
2022-11-24T17:06:17.687Z,3.53
2022-11-24T17:08:46.420Z,4.00
2022-11-24T17:11:19.049Z,3.70
2022-11-24T17:13:47.553Z,4.20
2022-11-24T17:16:16.468Z,4.38
2022-11-24T17:18:44.635Z,3.47
2022-11-24T17:21:20.181Z,3.88
2022-11-24T17:23:47.509Z,3.63
2022-11-24T17:26:18.386Z,3.72
2022-11-24T17:28:45.503Z,3.50
2022-11-24T17:31:16.990Z,4.95
2022-11-24T17:33:44.070Z,3.45
2022-11-24T17:36:10.930Z,3.72
2022-11-24T17:38:37.784Z,3.60
2022-11-24T17:41:05.170Z,3.80
2022-11-24T17:43:32.608Z,3.30
2022-11-24T17:46:02.067Z,3.53
2022-11-24T17:48:29.892Z,3.03
2022-11-24T17:51:10.418Z,4.03
2022-11-24T17:53:37.624Z,3.00
2022-11-24T17:56:06.072Z,3.40
2022-11-24T17:58:38.336Z,3.60
2022-11-24T18:01:08.585Z,3.75
2022-11-24T18:03:35.554Z,3.40
2022-11-24T18:06:14.150Z,3.33
2022-11-24T18:08:43.544Z,3.65
2022-11-24T18:11:25.933Z,3.80
2022-11-24T18:14:00.712Z,3.42
2022-11-24T18:16:30.519Z,3.70
2022-11-24T18:19:08.342Z,3.80
2022-11-24T18:21:37.730Z,3.17
2022-11-24T18:24:04.888Z,3.75
2022-11-24T18:26:31.760Z,4.72
2022-11-24T18:28:58.584Z,5.68
2022-11-24T18:31:26.321Z,4.47
2022-11-24T18:33:53.356Z,3.67
2022-11-24T18:36:28.380Z,4.10
2022-11-24T18:38:57.165Z,4.78
2022-11-24T18:41:23.976Z,4.13
2022-11-24T18:43:50.790Z,4.32
2022-11-24T18:46:18.287Z,4.20
2022-11-24T18:48:46.010Z,3.63
2022-11-24T18:51:15.962Z,3.72
2022-11-24T18:53:44.397Z,4.40
2022-11-24T18:56:16.311Z,3.45
2022-11-24T18:58:44.020Z,4.15
2022-11-24T19:01:16.632Z,3.83
2022-11-24T19:03:49.527Z,3.28
2022-11-24T19:06:28.977Z,3.58
2022-11-24T19:08:56.221Z,3.70
2022-11-24T19:11:25.815Z,3.90
2022-11-24T19:13:52.841Z,3.35
2022-11-24T19:16:21.219Z,3.97
2022-11-24T19:18:54.150Z,4.13
2022-11-24T19:21:22.090Z,3.60
2022-11-24T19:23:49.523Z,3.30
2022-11-24T19:26:16.655Z,3.50
2022-11-24T19:28:43.861Z,5.18
2022-11-24T19:31:13.010Z,5.60
2022-11-24T19:33:40.495Z,4.40
2022-11-24T19:36:13.352Z,3.95
2022-11-24T19:38:41.112Z,4.38
2022-11-24T19:41:13.288Z,3.45
2022-11-24T19:43:41.337Z,3.55
2022-11-24T19:46:10.628Z,3.45
2022-11-24T19:48:43.398Z,3.65
2022-11-24T19:51:19.005Z,3.83
2022-11-24T19:53:46.226Z,4.28
2022-11-24T19:56:16.461Z,4.32
2022-11-24T19:58:43.734Z,3.70
2022-11-24T20:01:11.975Z,4.05
2022-11-24T20:03:39.741Z,3.30
2022-11-24T20:06:08.194Z,4.20
2022-11-24T20:08:37.058Z,3.33
2022-11-24T20:11:09.276Z,3.00
2022-11-24T20:13:37.866Z,3.35
2022-11-24T20:16:05.800Z,3.10
2022-11-24T20:18:37.595Z,3.67
2022-11-24T20:21:18.741Z,3.22
2022-11-24T20:23:52.005Z,3.13
2022-11-24T20:26:20.869Z,3.13
2022-11-24T20:28:47.869Z,3.15
2022-11-24T20:31:20.322Z,3.70
2022-11-24T20:33:47.643Z,4.35
2022-11-24T20:36:17.692Z,3.55
2022-11-24T20:38:45.740Z,3.05
2022-11-24T20:41:18.818Z,3.28
2022-11-24T20:43:46.623Z,3.47
2022-11-24T20:46:21.741Z,2.67
2022-11-24T20:48:48.958Z,3.05
2022-11-24T20:51:23.016Z,4.20
2022-11-24T20:53:51.192Z,3.67
2022-11-24T20:56:24.671Z,2.80
2022-11-24T20:58:51.993Z,3.88
2022-11-24T21:01:31.347Z,3.22
2022-11-24T21:03:59.583Z,3.20
2022-11-24T21:06:28.121Z,3.40
2022-11-24T21:09:00.452Z,3.05
2022-11-24T21:11:30.783Z,3.25
2022-11-24T21:13:58.216Z,3.42
2022-11-24T21:16:26.542Z,4.22
2022-11-24T21:18:56.728Z,3.08
2022-11-24T21:21:25.316Z,3.35
2022-11-24T21:23:52.127Z,3.38
2022-11-24T21:26:19.509Z,3.35
2022-11-24T21:28:47.523Z,3.47
2022-11-24T21:31:17.437Z,3.30
2022-11-24T21:33:55.143Z,2.65
2022-11-24T21:36:24.395Z,3.80
2022-11-24T21:38:55.613Z,3.33
2022-11-24T21:41:23.673Z,3.10
2022-11-24T21:43:51.644Z,3.22
2022-11-24T21:46:18.676Z,3.40
2022-11-24T21:48:45.588Z,3.88
2022-11-24T21:51:17.881Z,3.13
2022-11-24T21:53:45.760Z,3.10
2022-11-24T21:56:16.081Z,3.22
2022-11-24T21:58:57.327Z,3.33
2022-11-24T22:01:27.404Z,2.78
2022-11-24T22:03:55.052Z,2.97
2022-11-24T22:06:22.267Z,3.53
2022-11-24T22:08:49.757Z,3.00
2022-11-24T22:11:24.776Z,3.47
2022-11-24T22:13:52.319Z,3.08
2022-11-24T22:16:21.480Z,2.90
2022-11-24T22:18:48.754Z,3.42
2022-11-24T22:21:18.217Z,2.90
2022-11-24T22:23:45.432Z,2.50
2022-11-24T22:26:17.634Z,3.05
2022-11-24T22:28:45.502Z,3.15
2022-11-24T22:31:15.947Z,3.20
2022-11-24T22:33:43.779Z,3.30
2022-11-24T22:36:12.345Z,3.50
2022-11-24T22:38:39.627Z,2.90
2022-11-24T22:41:12.237Z,3.05
2022-11-24T22:43:40.224Z,3.78
2022-11-24T22:46:11.369Z,3.17
2022-11-24T22:48:39.230Z,2.72
2022-11-24T22:51:11.395Z,2.50
2022-11-24T22:53:38.647Z,3.72
2022-11-24T22:56:11.071Z,3.03
2022-11-24T22:58:39.490Z,3.22
2022-11-24T23:01:14.633Z,2.95
2022-11-24T23:03:41.957Z,3.25
2022-11-24T23:06:13.227Z,3.20
2022-11-24T23:08:40.786Z,3.33
2022-11-24T23:11:14.632Z,2.47
2022-11-24T23:13:41.888Z,3.03
2022-11-24T23:16:15.057Z,2.65
2022-11-24T23:18:42.532Z,2.67
2022-11-24T23:21:11.809Z,2.63
2022-11-24T23:23:39.055Z,3.55
2022-11-24T23:26:11.341Z,2.47
2022-11-24T23:28:39.021Z,2.50
2022-11-24T23:31:12.060Z,3.67
2022-11-24T23:33:39.281Z,2.78
2022-11-24T23:36:09.203Z,2.67
2022-11-24T23:38:36.668Z,2.50
2022-11-24T23:41:10.766Z,2.40
2022-11-24T23:43:39.638Z,2.20
2022-11-24T23:46:09.023Z,2.80
2022-11-24T23:48:37.027Z,2.83
2022-11-24T23:51:10.324Z,2.80
2022-11-24T23:53:37.479Z,2.38
2022-11-24T23:56:04.703Z,3.13
2022-11-24T23:58:32.503Z,2.47
